Historyczne dane pomiarowe

Dodano dane terminowe – wersja testowa.

Dane z okresu 1951-2019

Wersja bazy: 1.34 [2019-03-16, lista zmian], aktualizacja planowana na 2019-04-15

Dane meteo z obszaru Polski uzyskane na podstawie danych udostępnionych przez Instytut Meteorologii i Gospodarki Wodnej – Państwowy Instytut Badawczy.

 

Wybierz Datę:    

       

TemperaturaWilgotnośćWiatrCiśnienieOpadyŚniegCzas trwania zjawisk
 Stacja t tx tn tng RH VA  wxwx mslp ppp RRR   cm mm wxwxwxwxwxwxwx
1990-12-13 0.5 1.8 -0.8- 90.0- 7.0 1.7---- 0.1------------
1990-12-13------------ 0.1--x---------
1990-12-14 0.7 1.3 -0.2- 96.3- 8.0 2.0---- 0.4------------
1990-12-14------------ 0.4--x---------
1990-12-15 0.2 0.3 -0.4- 97.3- 8.0 1.7---- 4.6------------
1990-12-15------------ 4.6--x---------
1990-12-16 -0.3 0.3 -1.1- 95.8- 8.0 1.7---- 1.4-- 2---------
1990-12-16------------ 1.4--x---------
1990-12-17 -0.7 -0.3 -1.9- 95.3- 8.0 1.7---- 0.3-- 2---------
1990-12-17------------ 0.3--x---------
1990-12-18 -1.2 -0.4 -2.4- 92.5- 7.3 2.0---- 0.4-- 2---------
1990-12-18------------ 0.4--x---------
1990-12-19 -1.5 0.2 -3.4- 93.0- 6.3 1.0---- 0.0-- 3---------
1990-12-20 -2.7 -0.2 -5.4- 86.5- 8.0 1.3---- 0.7-- 2---------
1990-12-20------------ 0.7--x---------
1990-12-21 -0.3 2.1 -3.6- 79.5- 7.3 1.3---- 0.4-- 2---------
1990-12-21------------ 0.4--x---------
1990-12-22 -0.2 1.4 -2.8- 89.5- 7.7 1.7---- 0.0-- 2---------
1990-12-23 -4.1 -2.2 -7.4- 96.5- 7.7 1.0---- 0.0-- 2---------
1990-12-24 -6.8 -4.0-11.8- 88.0- 6.0 1.0---- 0.0-- 1---------
1990-12-25 -7.1 -0.6-12.3- 85.3- 5.7 0.7---- 0.0-- 1---------
1990-12-26 1.0 6.7 -8.4- 61.8- 4.0 1.7---- 0.0-- 1---------
1990-12-27 5.2 7.1 0.2- 77.3- 6.7 4.3---- 0.8-- 1---------
1990-12-27------------ 0.8--x---------
1990-12-28 2.7 4.4 0.2- 80.3- 5.7 2.3---- 0.2------------
1990-12-28------------ 0.2--x---------
1990-12-29 1.8 4.3 -1.8- 72.3- 7.0 2.3---- 0.9------------
1990-12-29------------ 0.9--x---------
1990-12-30 7.3 10.8 3.4- 77.5- 7.3 3.0---- 1.2------------
1990-12-30------------ 1.2--x---------
1990-12-31 4.1 6.5 1.5- 89.8- 6.3 1.7---- 1.8------------
1990-12-31------------ 1.8--x---------
1991-01-01 2.5 4.5 0.0- 96.8- 8.0 2.0---- 0.2------------
1991-01-02 3.2 5.1 0.4- 72.3- 6.3 2.0---- 0.0------------
1991-01-03 7.7 11.0 3.1- 84.5- 6.7 2.7---- 4.7------------
1991-01-04 7.8 11.6 3.4- 85.3- 5.3 1.0---- 3.1------------
1991-01-05 4.9 9.8 1.2- 91.0- 6.3 2.0---- 0.1------------
1991-01-06 4.0 7.0 0.2- 71.0- 6.7 2.7---- 0.0------------
1991-01-07 4.8 7.2 2.2- 73.5- 5.7 2.0---- 3.7------------
1991-01-08 6.2 9.2 4.4- 84.0- 5.0 2.0---- 0.0------------
1991-01-09 7.1 12.2 1.8- 70.3- 6.0 3.0---- 0.0------------
1991-01-10 9.7 14.6 4.4- 69.8- 6.7 3.0---- 0.0------------
1991-01-11 10.2 14.8 8.0- 75.8- 7.7 2.0---- 1.6------------
301.8 ms

 

Źródłem pochodzenia danych jest Instytut Meteorologii i Gospodarki Wodnej – Państwowy Instytut Badawczy. Dane Instytutu Meteorologii i Gospodarki Wodnej – Państwowego Instytutu Badawczego zostały przetworzone.

Dane źródłowe można odnaleźć na stronie https://dane.imgw.pl